createdAt,value
2022-08-31T00:00:57.752Z,95908.42
2022-08-31T00:06:34.190Z,95905.01
2022-08-31T00:09:23.851Z,95912.07
2022-08-31T00:12:16.793Z,95903.20
2022-08-31T00:17:59.313Z,95907.64
2022-08-31T00:23:31.805Z,95905.31
2022-08-31T00:29:00.025Z,95906.05
2022-08-31T00:34:30.618Z,95907.11
2022-08-31T00:40:01.017Z,95901.81
2022-08-31T00:45:51.258Z,95893.41
2022-08-31T00:51:22.755Z,95886.74
2022-08-31T00:54:12.533Z,95897.67
2022-08-31T00:57:01.507Z,95892.79
2022-08-31T00:59:55.672Z,95896.50
2022-08-31T01:05:33.889Z,95896.88
2022-08-31T01:11:21.412Z,95899.70
2022-08-31T01:14:12.483Z,95899.23
2022-08-31T01:19:45.503Z,95902.38
2022-08-31T01:25:33.467Z,95901.03
2022-08-31T01:31:06.890Z,95902.98
2022-08-31T01:36:44.470Z,95907.13
2022-08-31T01:39:33.817Z,95905.96
2022-08-31T01:45:12.865Z,95908.28
2022-08-31T01:48:02.475Z,95913.16
2022-08-31T01:50:50.974Z,95910.65
2022-08-31T01:53:39.351Z,95911.94
2022-08-31T01:56:32.477Z,95921.37
2022-08-31T02:02:08.590Z,95918.41
2022-08-31T02:07:43.801Z,95919.83
2022-08-31T02:10:34.200Z,95919.38
2022-08-31T02:13:22.448Z,95923.91
2022-08-31T02:18:58.555Z,95924.89
2022-08-31T02:24:34.871Z,95928.48
2022-08-31T02:30:16.913Z,95927.15
2022-08-31T02:35:53.603Z,95929.97
2022-08-31T02:41:27.185Z,95934.80
2022-08-31T02:47:06.328Z,95924.63
2022-08-31T02:52:32.254Z,95932.30
2022-08-31T02:58:11.378Z,95932.28
2022-08-31T03:01:01.796Z,95933.21
2022-08-31T03:06:37.261Z,95935.70
2022-08-31T03:12:12.982Z,95933.13
2022-08-31T03:17:52.258Z,95935.28
2022-08-31T03:23:21.976Z,95932.80
2022-08-31T03:26:18.312Z,95934.77
2022-08-31T03:35:03.977Z,95938.08
2022-08-31T03:40:40.661Z,95936.59
2022-08-31T03:46:14.339Z,95937.20
2022-08-31T03:51:51.856Z,95938.86
2022-08-31T03:54:41.135Z,95942.28
2022-08-31T04:00:12.594Z,95943.08
2022-08-31T04:05:49.728Z,95940.54
2022-08-31T04:11:44.218Z,95942.09
2022-08-31T04:17:32.766Z,95948.59
2022-08-31T04:23:03.679Z,95944.59
2022-08-31T04:25:55.103Z,95948.95
2022-08-31T04:28:44.252Z,95943.47
2022-08-31T04:34:16.437Z,95943.08
2022-08-31T04:40:13.184Z,95935.68
2022-08-31T04:43:01.548Z,95942.22
2022-08-31T04:48:38.180Z,95947.35
2022-08-31T04:51:28.098Z,95941.79
2022-08-31T04:57:03.739Z,95945.42
2022-08-31T04:59:52.266Z,95955.06
2022-08-31T05:02:40.829Z,95954.77
2022-08-31T05:08:17.084Z,95957.59
2022-08-31T05:13:59.837Z,95957.84
2022-08-31T05:19:39.123Z,95946.09
2022-08-31T05:25:15.539Z,95946.10
2022-08-31T05:28:05.271Z,95955.70
2022-08-31T05:30:53.387Z,95952.63
2022-08-31T05:33:43.611Z,95942.09
2022-08-31T05:36:32.234Z,95949.19
2022-08-31T05:39:20.554Z,95953.33
2022-08-31T05:42:09.393Z,95948.11
2022-08-31T05:44:57.871Z,95955.64
2022-08-31T05:47:46.353Z,95953.08
2022-08-31T05:50:35.170Z,95961.13
2022-08-31T05:53:26.975Z,95959.55
2022-08-31T05:59:04.844Z,95962.69
2022-08-31T06:01:53.409Z,95966.80
2022-08-31T06:07:35.572Z,95967.44
2022-08-31T06:13:16.970Z,95975.54
2022-08-31T06:18:49.246Z,95975.75
2022-08-31T06:24:25.298Z,95971.00
2022-08-31T06:29:53.143Z,95976.73
2022-08-31T06:38:07.875Z,95977.16
2022-08-31T06:43:41.971Z,95981.20
2022-08-31T06:49:19.046Z,95981.95
2022-08-31T06:54:52.158Z,95988.68
2022-08-31T07:00:22.497Z,95994.17
2022-08-31T07:03:23.515Z,95999.22
2022-08-31T07:06:15.212Z,95999.44
2022-08-31T07:09:05.230Z,95998.49
2022-08-31T07:14:39.994Z,96006.50
2022-08-31T07:17:29.279Z,96002.77
2022-08-31T07:20:17.436Z,96008.54
2022-08-31T07:25:47.955Z,95990.11
2022-08-31T07:28:38.465Z,96005.36
2022-08-31T07:31:30.880Z,96004.53
2022-08-31T07:37:40.099Z,96006.71
2022-08-31T07:43:11.495Z,96008.86
2022-08-31T07:48:48.412Z,96009.91
2022-08-31T07:54:22.905Z,96006.30
2022-08-31T07:57:15.447Z,96003.34
2022-08-31T08:02:45.540Z,96006.73
2022-08-31T08:08:26.846Z,96017.70
2022-08-31T08:14:05.323Z,96022.77
2022-08-31T08:19:38.891Z,96037.25
2022-08-31T08:25:14.279Z,96046.22
2022-08-31T08:30:46.806Z,96053.72
2022-08-31T08:36:25.423Z,96053.52
2022-08-31T08:39:14.230Z,96062.51
2022-08-31T08:42:04.640Z,96062.69
2022-08-31T08:47:47.424Z,96066.92
2022-08-31T08:50:36.807Z,96070.19
2022-08-31T08:53:27.425Z,96064.72
2022-08-31T08:58:58.749Z,96073.53
2022-08-31T09:04:35.642Z,96071.98
2022-08-31T09:10:20.612Z,96074.91
2022-08-31T09:16:04.679Z,96084.70
2022-08-31T09:21:41.290Z,96085.80
2022-08-31T09:27:21.902Z,96083.80
2022-08-31T09:33:00.307Z,96087.08
2022-08-31T09:38:32.819Z,96085.13
2022-08-31T09:44:32.044Z,96081.42
2022-08-31T09:47:44.967Z,96080.00
2022-08-31T09:53:42.214Z,96084.48
2022-08-31T09:59:18.702Z,96075.02
2022-08-31T10:07:49.333Z,96077.20
2022-08-31T10:10:40.435Z,96073.88
2022-08-31T10:16:23.495Z,96076.55
2022-08-31T10:22:02.574Z,96073.52
2022-08-31T10:24:58.337Z,96075.20
2022-08-31T10:30:40.029Z,96071.13
2022-08-31T10:36:09.993Z,96079.18
2022-08-31T10:38:59.149Z,96083.16
2022-08-31T10:41:49.330Z,96089.59
2022-08-31T10:47:33.259Z,96091.66
2022-08-31T10:53:03.049Z,96080.16
2022-08-31T10:59:02.457Z,96069.05
2022-08-31T11:04:52.138Z,96074.55
2022-08-31T11:10:32.102Z,96063.25
2022-08-31T11:13:39.145Z,96061.15
2022-08-31T11:16:36.271Z,96057.64
2022-08-31T11:23:07.598Z,96045.14
2022-08-31T11:28:54.701Z,96037.13
2022-08-31T11:31:45.474Z,96037.80
2022-08-31T11:37:13.850Z,96026.56
2022-08-31T11:40:04.553Z,96035.47
2022-08-31T11:45:38.793Z,96022.34
2022-08-31T11:51:41.969Z,96023.58
2022-08-31T11:55:01.147Z,96021.61
2022-08-31T11:58:11.532Z,96020.65
2022-08-31T12:01:06.488Z,96017.86
2022-08-31T12:03:58.419Z,96023.97
2022-08-31T12:07:04.729Z,96019.64
2022-08-31T12:13:38.337Z,96019.08
2022-08-31T12:20:05.653Z,96023.81
2022-08-31T12:23:38.769Z,96026.95
2022-08-31T12:29:25.931Z,96018.28
2022-08-31T12:35:23.769Z,96019.92
2022-08-31T12:43:38.673Z,96037.69
2022-08-31T12:49:32.935Z,96024.70
2022-08-31T12:55:22.061Z,96018.42
2022-08-31T12:58:30.866Z,96026.10
2022-08-31T13:07:17.622Z,96002.16
2022-08-31T13:10:12.004Z,96005.48
2022-08-31T13:15:46.106Z,96010.78
2022-08-31T13:21:22.609Z,96000.56
2022-08-31T13:24:13.696Z,95997.56
2022-08-31T13:27:08.005Z,96002.58
2022-08-31T13:32:59.710Z,95984.86
2022-08-31T13:38:32.309Z,95987.03
2022-08-31T13:44:09.693Z,95987.48
2022-08-31T13:55:05.015Z,95984.44
2022-08-31T14:00:44.391Z,95980.30
2022-08-31T14:06:27.085Z,95971.77
2022-08-31T14:09:18.114Z,95981.80
2022-08-31T14:14:46.672Z,95982.61
2022-08-31T14:17:35.476Z,95984.22
2022-08-31T14:26:27.155Z,95976.45
2022-08-31T14:29:19.752Z,95978.56
2022-08-31T14:34:48.782Z,95982.63
2022-08-31T14:37:37.986Z,95992.45
2022-08-31T14:40:25.930Z,95989.69
2022-08-31T14:46:21.306Z,95984.37
2022-08-31T14:49:10.819Z,95980.61
2022-08-31T14:52:00.651Z,95983.38
2022-08-31T14:57:30.465Z,95977.33
2022-08-31T15:03:02.460Z,95968.84
2022-08-31T15:08:38.352Z,95965.30
2022-08-31T15:14:06.176Z,95972.39
2022-08-31T15:19:45.447Z,95981.28
2022-08-31T15:22:35.241Z,95980.89
2022-08-31T15:25:25.185Z,95975.36
2022-08-31T15:31:01.902Z,95968.44
2022-08-31T15:33:54.804Z,95969.02
2022-08-31T15:39:40.899Z,95971.56
2022-08-31T15:42:31.230Z,95965.48
2022-08-31T15:54:48.334Z,95951.11
2022-08-31T15:57:37.261Z,95954.07
2022-08-31T16:00:26.323Z,95949.92
2022-08-31T16:03:15.461Z,95953.84
2022-08-31T16:08:53.571Z,95947.78
2022-08-31T16:14:24.811Z,95943.27
2022-08-31T16:19:56.634Z,95935.19
2022-08-31T16:25:49.463Z,95935.22
2022-08-31T16:31:18.598Z,95927.52
2022-08-31T16:34:10.199Z,95930.26
2022-08-31T16:36:59.860Z,95925.52
2022-08-31T16:39:48.427Z,95922.37
2022-08-31T16:42:36.876Z,95925.33
2022-08-31T16:48:25.576Z,95912.53
2022-08-31T16:51:16.073Z,95914.34
2022-08-31T16:54:07.211Z,95911.73
2022-08-31T16:56:57.725Z,95915.86
2022-08-31T17:02:36.740Z,95919.02
2022-08-31T17:08:07.974Z,95921.38
2022-08-31T17:13:37.041Z,95915.98
2022-08-31T17:19:18.370Z,95914.20
2022-08-31T17:22:11.701Z,95918.25
2022-08-31T17:27:58.709Z,95913.91
2022-08-31T17:33:27.137Z,95910.31
2022-08-31T17:39:02.054Z,95906.58
2022-08-31T17:44:32.526Z,95915.00
2022-08-31T17:47:21.562Z,95918.70
2022-08-31T17:52:48.287Z,95918.80
2022-08-31T17:58:20.798Z,95917.41
2022-08-31T18:03:52.149Z,95929.42
2022-08-31T18:09:53.897Z,95939.91
2022-08-31T18:15:31.431Z,95945.19
2022-08-31T18:21:09.344Z,95944.83
2022-08-31T18:23:57.966Z,95949.85
2022-08-31T18:29:26.736Z,95950.64
2022-08-31T18:32:15.625Z,95959.48
2022-08-31T18:37:45.508Z,95949.53
2022-08-31T18:43:42.519Z,95953.84
2022-08-31T18:46:30.763Z,95950.23
2022-08-31T18:49:21.834Z,95953.52
2022-08-31T18:54:59.836Z,95965.21
2022-08-31T19:03:27.496Z,95968.50
2022-08-31T19:06:21.418Z,95969.94
2022-08-31T19:11:55.761Z,95967.81
2022-08-31T19:14:45.240Z,95961.98
2022-08-31T19:20:13.899Z,95961.97
2022-08-31T19:23:02.742Z,95956.92
2022-08-31T19:28:52.112Z,95954.85
2022-08-31T19:34:28.621Z,95954.48
2022-08-31T19:37:17.055Z,95951.69
2022-08-31T19:40:07.702Z,95952.52
2022-08-31T19:45:45.381Z,95961.09
2022-08-31T19:53:55.156Z,95959.81
2022-08-31T19:59:48.807Z,95956.84
2022-08-31T20:02:40.756Z,95955.97
2022-08-31T20:05:29.165Z,95950.81
2022-08-31T20:11:01.864Z,95956.57
2022-08-31T20:16:34.592Z,95950.24
2022-08-31T20:19:25.371Z,95951.28
2022-08-31T20:22:13.925Z,95946.59
2022-08-31T20:27:44.061Z,95939.88
2022-08-31T20:30:36.949Z,95941.45
2022-08-31T20:36:20.078Z,95942.33
2022-08-31T20:41:59.087Z,95934.63
2022-08-31T20:48:04.031Z,95937.92
2022-08-31T20:53:42.374Z,95938.27
2022-08-31T20:56:24.800Z,95945.45
2022-08-31T20:59:16.063Z,95941.19
2022-08-31T21:04:56.852Z,95942.08
2022-08-31T21:10:38.280Z,95947.78
2022-08-31T21:16:19.586Z,95960.11
2022-08-31T21:21:56.051Z,95955.23
2022-08-31T21:24:44.307Z,95954.42
2022-08-31T21:30:21.456Z,95956.00
2022-08-31T21:33:10.818Z,95957.50
2022-08-31T21:36:11.271Z,95951.80
2022-08-31T21:41:47.272Z,95951.59
2022-08-31T21:44:35.828Z,95944.09
2022-08-31T21:47:28.477Z,95954.84
2022-08-31T21:50:17.042Z,95939.68
2022-08-31T21:53:07.446Z,95947.91
2022-08-31T21:58:41.209Z,95942.42
2022-08-31T22:01:33.313Z,95941.47
2022-08-31T22:07:21.442Z,95935.65
2022-08-31T22:10:12.067Z,95939.84
2022-08-31T22:15:43.985Z,95932.22
2022-08-31T22:19:00.295Z,95930.47
2022-08-31T22:21:25.512Z,95935.20
2022-08-31T22:27:02.637Z,95919.62
2022-08-31T22:32:35.072Z,95911.71
2022-08-31T22:38:10.530Z,95924.31
2022-08-31T22:43:43.239Z,95918.08
2022-08-31T22:49:21.613Z,95913.81
2022-08-31T22:52:14.040Z,95912.02
2022-08-31T22:55:00.503Z,95910.00
2022-08-31T23:00:29.072Z,95912.73
2022-08-31T23:03:20.228Z,95915.92
2022-08-31T23:06:10.817Z,95912.20
2022-08-31T23:09:00.059Z,95907.05
2022-08-31T23:14:38.883Z,95903.91
2022-08-31T23:23:45.458Z,95887.85
2022-08-31T23:29:22.194Z,95887.95
2022-08-31T23:34:59.128Z,95885.55
2022-08-31T23:40:36.570Z,95881.57
2022-08-31T23:43:26.711Z,95879.32
2022-08-31T23:49:03.109Z,95883.21
2022-08-31T23:51:51.763Z,95874.77
2022-08-31T23:54:40.134Z,95873.98
2022-08-31T23:57:33.264Z,95867.03
